createdAt,value
2023-02-15T00:00:42.759Z,53.3
2023-02-15T00:01:59.865Z,66
2023-02-15T00:03:16.970Z,49.9
2023-02-15T00:04:34.076Z,49.4
2023-02-15T00:05:51.182Z,48.5
2023-02-15T00:07:08.287Z,50.9
2023-02-15T00:08:24.414Z,48.8
2023-02-15T00:09:40.535Z,58.6
2023-02-15T00:10:57.641Z,49.1
2023-02-15T00:12:14.746Z,48.5
2023-02-15T00:13:30.873Z,49.1
2023-02-15T00:14:46.994Z,48.5
2023-02-15T00:16:04.100Z,57.2
2023-02-15T00:17:21.206Z,48.1
2023-02-15T00:18:38.311Z,48
2023-02-15T00:19:55.417Z,48.8
2023-02-15T00:21:12.522Z,49.3
2023-02-15T00:22:29.628Z,49.4
2023-02-15T00:23:46.734Z,49.1
2023-02-15T00:25:03.839Z,48.6
2023-02-15T00:26:20.945Z,49.6
2023-02-15T00:27:38.051Z,53
2023-02-15T00:28:55.156Z,57
2023-02-15T00:30:12.262Z,58.6
2023-02-15T00:31:28.383Z,66
2023-02-15T00:32:45.489Z,48.6
2023-02-15T00:34:02.595Z,48
2023-02-15T00:35:19.701Z,48.9
2023-02-15T00:36:36.806Z,49.6
2023-02-15T00:37:53.912Z,59.7
2023-02-15T00:39:11.018Z,49.4
2023-02-15T00:40:27.144Z,48.6
2023-02-15T00:41:43.266Z,49.7
2023-02-15T00:43:00.372Z,50.2
2023-02-15T00:44:16.498Z,59.1
2023-02-15T00:45:32.620Z,51.7
2023-02-15T00:46:49.725Z,49.4
2023-02-15T00:48:06.831Z,48.1
2023-02-15T00:49:23.936Z,49.3
2023-02-15T00:50:41.041Z,49.1
2023-02-15T00:51:58.147Z,48.9
2023-02-15T00:54:32.358Z,48.1
2023-02-15T00:55:49.464Z,48.6
2023-02-15T00:57:06.569Z,48.8
2023-02-15T00:58:23.675Z,49.4
2023-02-15T00:59:40.781Z,49.7
2023-02-15T01:00:57.887Z,49.6
2023-02-15T01:02:14.008Z,49.1
2023-02-15T01:03:31.113Z,48.9
2023-02-15T01:04:48.217Z,48.9
2023-02-15T01:06:05.323Z,48.9
2023-02-15T01:07:22.428Z,48.6
2023-02-15T01:08:39.534Z,49.3
2023-02-15T01:09:56.639Z,49.3
2023-02-15T01:11:13.744Z,55.2
2023-02-15T01:12:30.850Z,48.9
2023-02-15T01:13:47.955Z,49.3
2023-02-15T01:15:05.060Z,48.6
2023-02-15T01:17:39.272Z,51.8
2023-02-15T01:18:55.394Z,50.5
2023-02-15T01:20:12.499Z,56.2
2023-02-15T01:21:29.605Z,53.4
2023-02-15T01:22:46.710Z,49.4
2023-02-15T01:24:02.837Z,48.9
2023-02-15T01:25:18.959Z,50.1
2023-02-15T01:26:36.064Z,48.8
2023-02-15T01:27:52.191Z,48.5
2023-02-15T01:29:08.313Z,53.6
2023-02-15T01:30:25.418Z,50.2
2023-02-15T01:31:42.524Z,56
2023-02-15T01:32:59.630Z,49.9
2023-02-15T01:34:16.735Z,49.1
2023-02-15T01:35:33.841Z,49.4
2023-02-15T01:36:50.946Z,48.8
2023-02-15T01:38:08.053Z,49.3
2023-02-15T01:39:25.158Z,48.3
2023-02-15T01:40:42.263Z,48.9
2023-02-15T01:41:59.369Z,48.5
2023-02-15T01:43:16.474Z,49.3
2023-02-15T01:44:33.580Z,53
2023-02-15T01:45:49.701Z,49.4
2023-02-15T01:47:06.807Z,49.9
2023-02-15T01:48:23.912Z,50.9
2023-02-15T01:49:41.017Z,58.6
2023-02-15T01:50:58.123Z,49.4
2023-02-15T01:52:15.228Z,50.7
2023-02-15T01:53:32.334Z,51.8
2023-02-15T01:54:49.439Z,48.9
2023-02-15T01:56:06.545Z,50.7
2023-02-15T01:57:23.650Z,48.5
2023-02-15T01:58:40.755Z,48.5
2023-02-15T01:59:57.861Z,48.3
2023-02-15T02:01:14.966Z,50.2
2023-02-15T02:02:31.088Z,51.2
2023-02-15T02:03:48.193Z,49.3
2023-02-15T02:05:05.298Z,49.1
2023-02-15T02:06:22.404Z,48.5
2023-02-15T02:07:39.509Z,48.9
2023-02-15T02:08:55.636Z,49.1
2023-02-15T02:10:11.757Z,50.4
2023-02-15T02:11:28.864Z,49.6
2023-02-15T02:12:45.967Z,53.4
2023-02-15T02:14:03.073Z,50.2
2023-02-15T02:15:20.178Z,49.4
2023-02-15T02:16:37.283Z,48.5
2023-02-15T02:17:54.389Z,50.2
2023-02-15T02:19:11.494Z,49.9
2023-02-15T02:20:28.600Z,48.9
2023-02-15T02:21:45.705Z,50.9
2023-02-15T02:23:02.810Z,50.1
2023-02-15T02:24:19.916Z,49.1
2023-02-15T02:25:37.022Z,49.3
2023-02-15T02:26:53.144Z,49.4
2023-02-15T02:28:10.249Z,48.8
2023-02-15T02:29:27.354Z,48
2023-02-15T02:30:44.460Z,50.2
2023-02-15T02:32:01.565Z,48.9
2023-02-15T02:33:18.671Z,51.8
2023-02-15T02:34:35.776Z,64.6
2023-02-15T02:35:51.903Z,49.9
2023-02-15T02:37:08.024Z,50.1
2023-02-15T02:38:24.151Z,49.4
2023-02-15T02:39:40.272Z,50.9
2023-02-15T02:40:57.378Z,49.6
2023-02-15T02:42:14.483Z,49.9
2023-02-15T02:43:31.589Z,49.3
2023-02-15T02:44:48.694Z,49.9
2023-02-15T02:46:05.800Z,48.6
2023-02-15T02:47:22.905Z,48.8
2023-02-15T02:48:40.009Z,50.9
2023-02-15T02:49:57.114Z,49.6
2023-02-15T02:51:14.220Z,49.4
2023-02-15T02:52:31.325Z,48.9
2023-02-15T02:53:48.430Z,49.7
2023-02-15T02:55:05.536Z,48.9
2023-02-15T02:56:21.657Z,52.2
2023-02-15T02:57:38.763Z,49.4
2023-02-15T02:58:55.868Z,49.7
2023-02-15T03:00:12.974Z,51.8
2023-02-15T03:01:30.079Z,58.1
2023-02-15T03:02:47.185Z,49.6
2023-02-15T03:04:04.290Z,48.8
2023-02-15T03:05:21.395Z,48.9
2023-02-15T03:06:38.501Z,48.8
2023-02-15T03:07:55.607Z,54.4
2023-02-15T03:09:12.712Z,50.7
2023-02-15T03:10:28.839Z,49.1
2023-02-15T03:11:44.960Z,50.4
2023-02-15T03:13:01.087Z,51.4
2023-02-15T03:14:17.209Z,49.6
2023-02-15T03:15:34.314Z,48.6
2023-02-15T03:16:51.420Z,49.4
2023-02-15T03:18:08.526Z,48.3
2023-02-15T03:19:25.632Z,48.6
2023-02-15T03:20:41.753Z,52.3
2023-02-15T03:21:58.860Z,49.7
2023-02-15T03:23:15.965Z,48.3
2023-02-15T03:24:33.069Z,48.8
2023-02-15T03:25:50.174Z,50.1
2023-02-15T03:27:07.280Z,68.3
2023-02-15T03:28:24.385Z,50.2
2023-02-15T03:29:41.491Z,51.2
2023-02-15T03:30:58.596Z,58.1
2023-02-15T03:32:15.701Z,57.2
2023-02-15T03:33:32.807Z,51.8
2023-02-15T03:34:49.913Z,52
2023-02-15T03:36:07.018Z,55.5
2023-02-15T03:37:23.140Z,51
2023-02-15T03:38:40.245Z,56
2023-02-15T03:39:56.372Z,50.4
2023-02-15T03:41:12.493Z,51.5
2023-02-15T03:42:28.620Z,55.7
2023-02-15T03:43:44.742Z,60.2
2023-02-15T03:45:01.847Z,52
2023-02-15T03:46:18.952Z,53.9
2023-02-15T03:47:36.058Z,62.6
2023-02-15T03:48:53.163Z,63.6
2023-02-15T03:50:10.269Z,64.4
2023-02-15T03:51:27.374Z,55.7
2023-02-15T03:52:44.480Z,62.3
2023-02-15T03:54:01.585Z,60.2
2023-02-15T03:55:18.691Z,53
2023-02-15T03:56:35.796Z,56
2023-02-15T03:57:52.902Z,52.3
2023-02-15T03:59:10.007Z,54.7
2023-02-15T04:00:26.129Z,53.9
2023-02-15T04:01:43.234Z,70.5
2023-02-15T04:03:00.340Z,53.8
2023-02-15T04:04:17.446Z,56.3
2023-02-15T04:05:34.551Z,60.2
2023-02-15T04:06:51.656Z,53.3
2023-02-15T04:08:08.762Z,58.1
2023-02-15T04:09:24.889Z,57.6
2023-02-15T04:10:41.010Z,53
2023-02-15T04:11:57.137Z,59.1
2023-02-15T04:13:13.259Z,64.1
2023-02-15T04:14:30.365Z,55.4
2023-02-15T04:15:47.470Z,54.1
2023-02-15T04:17:04.576Z,60.4
2023-02-15T04:18:21.682Z,66.7
2023-02-15T04:19:38.787Z,52.3
2023-02-15T04:20:55.893Z,55.9
2023-02-15T04:22:12.998Z,69.4
2023-02-15T04:23:30.103Z,67.9
2023-02-15T04:24:47.209Z,60.1
2023-02-15T04:26:04.314Z,64.4
2023-02-15T04:27:21.420Z,62.5
2023-02-15T04:28:38.527Z,67.9
2023-02-15T04:29:54.648Z,64.6
2023-02-15T04:31:11.754Z,54.7
2023-02-15T04:32:28.860Z,67.3
2023-02-15T04:33:45.965Z,66.8
2023-02-15T04:35:03.071Z,70
2023-02-15T04:36:20.176Z,54.4
2023-02-15T04:37:37.282Z,70.5
2023-02-15T04:38:53.409Z,59.1
2023-02-15T04:40:09.530Z,56.2
2023-02-15T04:41:25.657Z,70
2023-02-15T04:42:41.779Z,64.4
2023-02-15T04:43:58.885Z,67.1
2023-02-15T04:45:15.990Z,69.4
2023-02-15T04:46:33.096Z,55.2
2023-02-15T04:47:50.202Z,54.4
2023-02-15T04:49:07.307Z,66.8
2023-02-15T04:50:24.412Z,62.3
2023-02-15T04:51:41.518Z,70
2023-02-15T04:52:58.624Z,59.1
2023-02-15T04:54:15.729Z,63.6
2023-02-15T04:55:32.835Z,60.2
2023-02-15T04:56:49.941Z,63.6
2023-02-15T04:58:07.046Z,59.9
2023-02-15T04:59:23.168Z,66.8
2023-02-15T05:00:40.273Z,58.1
2023-02-15T05:01:57.379Z,54.6
2023-02-15T05:03:14.485Z,61.3
2023-02-15T05:04:31.590Z,66.2
2023-02-15T05:05:48.696Z,63
2023-02-15T05:07:05.802Z,63.6
2023-02-15T05:08:21.928Z,67
2023-02-15T05:09:38.050Z,65.4
2023-02-15T05:10:55.156Z,63.8
2023-02-15T05:12:11.282Z,67.8
2023-02-15T05:13:27.404Z,67.5
2023-02-15T05:14:44.509Z,57
2023-02-15T05:16:01.615Z,60.2
2023-02-15T05:17:18.721Z,61.3
2023-02-15T05:18:35.826Z,57.6
2023-02-15T05:19:52.932Z,66.5
2023-02-15T05:21:10.037Z,61.5
2023-02-15T05:22:27.143Z,55.5
2023-02-15T05:23:44.249Z,64.6
2023-02-15T05:25:01.355Z,58.8
2023-02-15T05:26:18.460Z,63
2023-02-15T05:27:35.566Z,66.2
2023-02-15T05:28:52.671Z,64.9
2023-02-15T05:30:08.793Z,67.5
2023-02-15T05:31:25.898Z,63.3
2023-02-15T05:32:43.004Z,67.1
2023-02-15T05:34:00.110Z,68.1
2023-02-15T05:35:17.215Z,56.8
2023-02-15T05:36:34.321Z,68.9
2023-02-15T05:37:51.426Z,62.6
2023-02-15T05:39:07.553Z,67.9
2023-02-15T05:40:23.673Z,67.3
2023-02-15T05:41:40.778Z,63.8
2023-02-15T05:42:56.905Z,64.1
2023-02-15T05:44:13.027Z,68.6
2023-02-15T05:45:30.132Z,72.3
2023-02-15T05:46:47.238Z,63.6
2023-02-15T05:48:04.343Z,64.6
2023-02-15T05:49:21.449Z,70.8
2023-02-15T05:50:38.555Z,68.3
2023-02-15T05:51:55.660Z,68.1
2023-02-15T05:53:12.766Z,61.2
2023-02-15T05:54:29.871Z,68.1
2023-02-15T05:55:46.977Z,69.9
2023-02-15T05:57:04.082Z,58.4
2023-02-15T05:58:21.188Z,69.7
2023-02-15T05:59:38.294Z,67.9
2023-02-15T06:00:54.415Z,80.7
2023-02-15T06:02:11.521Z,83.1
2023-02-15T06:03:28.626Z,73.6
2023-02-15T06:04:45.732Z,63.9
2023-02-15T06:06:02.837Z,59.9
2023-02-15T06:07:19.943Z,57.2
2023-02-15T06:08:37.048Z,65.4
2023-02-15T06:09:53.175Z,63.1
2023-02-15T06:11:09.296Z,64.2
2023-02-15T06:12:26.402Z,63.1
2023-02-15T06:13:43.509Z,70.5
2023-02-15T06:14:59.636Z,69.2
2023-02-15T06:16:15.757Z,69.1
2023-02-15T06:17:32.863Z,66.7
2023-02-15T06:18:49.968Z,64.9
2023-02-15T06:20:07.074Z,69.2
2023-02-15T06:21:24.179Z,65.9
2023-02-15T06:22:41.285Z,67.9
2023-02-15T06:23:58.390Z,66.5
2023-02-15T06:25:15.496Z,68.9
2023-02-15T06:26:32.602Z,61.3
2023-02-15T06:27:49.707Z,68.9
2023-02-15T06:29:06.813Z,69.9
2023-02-15T06:30:23.918Z,72.1
2023-02-15T06:32:58.129Z,67.9
2023-02-15T06:34:14.251Z,63.8
2023-02-15T06:35:31.356Z,63
2023-02-15T06:36:48.462Z,69.2
2023-02-15T06:38:05.567Z,68.9
2023-02-15T06:39:22.674Z,71.2
2023-02-15T06:40:39.780Z,59.7
2023-02-15T06:41:56.885Z,66.2
2023-02-15T06:43:13.012Z,69.9
2023-02-15T06:44:29.133Z,64.9
2023-02-15T06:45:45.260Z,80.8
2023-02-15T06:47:01.382Z,81.3
2023-02-15T06:48:18.487Z,85.7
2023-02-15T06:49:35.591Z,85.5
2023-02-15T06:50:52.696Z,82.6
2023-02-15T06:52:09.802Z,70.5
2023-02-15T06:53:26.908Z,64.6
2023-02-15T06:54:44.013Z,67.9
2023-02-15T06:56:01.119Z,69.7
2023-02-15T06:57:18.224Z,62.8
2023-02-15T06:58:35.330Z,67.8
2023-02-15T06:59:52.435Z,67.3
2023-02-15T07:01:09.541Z,69.4
2023-02-15T07:02:26.647Z,62.3
2023-02-15T07:03:42.768Z,59.7
2023-02-15T07:04:59.874Z,69.2
2023-02-15T07:06:16.980Z,63
2023-02-15T07:07:34.086Z,62.8
2023-02-15T07:08:51.191Z,69.1
2023-02-15T07:10:08.297Z,68.9
2023-02-15T07:11:25.402Z,67.5
2023-02-15T07:12:41.529Z,66.7
2023-02-15T07:13:57.651Z,71.5
2023-02-15T07:15:13.777Z,69.7
2023-02-15T07:16:29.899Z,67.9
2023-02-15T07:17:47.005Z,67.5
2023-02-15T07:19:04.110Z,67.5
2023-02-15T07:20:21.217Z,68.4
2023-02-15T07:21:38.322Z,70.4
2023-02-15T07:22:55.428Z,71.5
2023-02-15T07:24:12.533Z,69.4
2023-02-15T07:25:29.639Z,67.8
2023-02-15T07:26:46.744Z,68.8
2023-02-15T07:28:03.849Z,66.2
2023-02-15T07:29:20.955Z,72
2023-02-15T07:30:38.061Z,69.4
2023-02-15T07:31:55.166Z,66.2
2023-02-15T07:33:11.288Z,68.4
2023-02-15T07:34:28.394Z,65.2
2023-02-15T07:35:45.499Z,66.7
2023-02-15T07:37:02.605Z,68.4
2023-02-15T07:38:18.726Z,64.1
2023-02-15T07:39:35.831Z,65.4
2023-02-15T07:40:52.936Z,66.5
2023-02-15T07:42:09.063Z,68.9
2023-02-15T07:43:25.184Z,67.8
2023-02-15T07:44:42.289Z,60.5
2023-02-15T07:45:58.416Z,64.7
2023-02-15T07:47:14.537Z,61
2023-02-15T07:48:31.642Z,67.1
2023-02-15T07:49:48.747Z,62.3
2023-02-15T07:51:05.852Z,62.1
2023-02-15T07:52:22.957Z,67.5
2023-02-15T07:53:40.062Z,69.4
2023-02-15T07:54:57.167Z,68.3
2023-02-15T07:57:31.376Z,61.3
2023-02-15T07:58:48.481Z,63.1
2023-02-15T08:00:05.586Z,64.7
2023-02-15T08:01:22.691Z,68.6
2023-02-15T08:02:39.796Z,61.2
2023-02-15T08:03:55.917Z,59.2
2023-02-15T08:05:13.022Z,61.3
2023-02-15T08:06:30.127Z,69.4
2023-02-15T08:07:47.232Z,66.5
2023-02-15T08:09:04.337Z,62.8
2023-02-15T08:10:21.442Z,66.3
2023-02-15T08:11:38.546Z,67.9
2023-02-15T08:12:55.651Z,57.2
2023-02-15T08:14:11.777Z,64.6
2023-02-15T08:15:27.897Z,64.1
2023-02-15T08:16:44.023Z,66
2023-02-15T08:18:00.144Z,61.3
2023-02-15T08:19:17.248Z,65.2
2023-02-15T08:20:34.353Z,66.7
2023-02-15T08:21:51.458Z,70
2023-02-15T08:23:08.562Z,63
2023-02-15T08:24:25.667Z,58.3
2023-02-15T08:25:42.772Z,65
2023-02-15T08:26:59.877Z,67.3
2023-02-15T08:28:16.982Z,63
2023-02-15T08:29:34.087Z,62.1
2023-02-15T08:30:51.191Z,62.8
2023-02-15T08:32:08.296Z,64.9
2023-02-15T08:33:25.401Z,61.3
2023-02-15T08:34:41.522Z,65.9
2023-02-15T08:35:58.627Z,60.2
2023-02-15T08:37:15.732Z,62.1
2023-02-15T08:38:32.836Z,66.5
2023-02-15T08:39:49.941Z,88.7
2023-02-15T08:41:07.046Z,68.1
2023-02-15T08:42:24.151Z,68.3
2023-02-15T08:43:40.277Z,60.9
2023-02-15T08:44:56.398Z,61.2
2023-02-15T08:46:13.502Z,66.3
2023-02-15T08:47:30.607Z,60.7
2023-02-15T08:48:46.733Z,64.9
2023-02-15T08:50:02.854Z,66
2023-02-15T08:51:19.959Z,60.7
2023-02-15T08:52:37.064Z,63
2023-02-15T08:53:54.169Z,67.3
2023-02-15T08:55:11.273Z,62.5
2023-02-15T08:56:28.378Z,65.2
2023-02-15T08:57:45.482Z,65.5
2023-02-15T08:59:02.587Z,64.7
2023-02-15T09:00:19.691Z,77.1
2023-02-15T09:01:36.795Z,63
2023-02-15T09:02:53.900Z,57.6
2023-02-15T09:04:11.004Z,68.4
2023-02-15T09:05:28.108Z,59.1
2023-02-15T09:06:44.229Z,58.4
2023-02-15T09:08:01.334Z,71.2
2023-02-15T09:09:18.438Z,57.5
2023-02-15T09:10:35.542Z,63.8
2023-02-15T09:13:09.751Z,61
2023-02-15T09:14:26.856Z,64.6
2023-02-15T09:15:43.960Z,63.9
2023-02-15T09:17:00.085Z,58.6
2023-02-15T09:18:16.206Z,65.7
2023-02-15T09:19:32.331Z,66
2023-02-15T09:20:48.452Z,66
2023-02-15T09:22:05.556Z,63.8
2023-02-15T09:23:22.660Z,55.9
2023-02-15T09:24:39.765Z,63.8
2023-02-15T09:25:56.869Z,62.1
2023-02-15T09:27:13.973Z,59.9
2023-02-15T09:28:31.078Z,58
2023-02-15T09:29:48.183Z,57
2023-02-15T09:31:05.287Z,55.7
2023-02-15T09:32:22.391Z,60.2
2023-02-15T09:33:39.495Z,58.4
2023-02-15T09:34:56.600Z,65.2
2023-02-15T09:36:13.704Z,64.2
2023-02-15T09:37:29.825Z,61.2
2023-02-15T09:38:46.927Z,60.2
2023-02-15T09:40:04.032Z,64.1
2023-02-15T09:41:21.136Z,66.7
2023-02-15T09:42:38.241Z,65
2023-02-15T09:43:55.345Z,57.3
2023-02-15T09:45:12.449Z,66.3
2023-02-15T09:46:28.575Z,62.8
2023-02-15T09:47:44.695Z,59.4
2023-02-15T09:49:00.821Z,64.6
2023-02-15T09:50:16.941Z,59.1
2023-02-15T09:51:34.046Z,63.4
2023-02-15T09:52:51.150Z,59.4
2023-02-15T09:54:08.255Z,56.3
2023-02-15T09:55:25.359Z,55.4
2023-02-15T09:56:42.464Z,59.1
2023-02-15T09:57:59.569Z,64.9
2023-02-15T09:59:16.673Z,67.1
2023-02-15T10:00:33.777Z,64.2
2023-02-15T10:01:50.881Z,62.6
2023-02-15T10:03:07.985Z,60.9
2023-02-15T10:04:25.089Z,57.3
2023-02-15T10:05:42.193Z,63.3
2023-02-15T10:06:58.313Z,61
2023-02-15T10:08:15.418Z,60.9
2023-02-15T10:09:32.522Z,62.1
2023-02-15T10:10:49.626Z,59.9
2023-02-15T10:12:06.730Z,64.2
2023-02-15T10:13:23.835Z,58.8
2023-02-15T10:14:40.939Z,57.6
2023-02-15T10:15:58.043Z,60.5
2023-02-15T10:17:15.147Z,63
2023-02-15T10:18:32.252Z,65.4
2023-02-15T10:19:49.357Z,61
2023-02-15T10:21:06.461Z,64.6
2023-02-15T10:22:23.565Z,63
2023-02-15T10:23:39.686Z,56.5
2023-02-15T10:24:56.790Z,61.2
2023-02-15T10:26:13.895Z,65.4
2023-02-15T10:27:30.999Z,65.9
2023-02-15T10:28:48.103Z,65.5
2023-02-15T10:30:05.208Z,64.9
2023-02-15T10:31:22.313Z,67
2023-02-15T10:32:39.417Z,60.2
2023-02-15T10:33:56.521Z,61.3
2023-02-15T10:35:13.625Z,56.5
2023-02-15T10:36:30.730Z,64.9
2023-02-15T10:37:47.834Z,60.1
2023-02-15T10:39:04.939Z,61.7
2023-02-15T10:40:21.059Z,62
2023-02-15T10:41:38.164Z,60.9
2023-02-15T10:42:55.268Z,62.8
2023-02-15T10:44:12.372Z,60.5
2023-02-15T10:45:29.477Z,62.6
2023-02-15T10:46:46.581Z,59.4
2023-02-15T10:48:03.685Z,62.3
2023-02-15T10:49:20.789Z,66.5
2023-02-15T10:50:37.894Z,59.2
2023-02-15T10:51:54.998Z,64.2
2023-02-15T10:53:12.102Z,54.1
2023-02-15T10:54:28.228Z,62.6
2023-02-15T10:55:44.348Z,61.2
2023-02-15T10:57:01.452Z,61.5
2023-02-15T10:58:17.578Z,62.8
2023-02-15T10:59:33.698Z,56.8
2023-02-15T11:00:50.804Z,74.2
2023-02-15T11:02:07.908Z,77.6
2023-02-15T11:03:25.012Z,75.8
2023-02-15T11:04:42.117Z,61.2
2023-02-15T11:05:59.221Z,55.7
2023-02-15T11:07:16.326Z,67.8
2023-02-15T11:08:33.431Z,65.5
2023-02-15T11:09:50.536Z,62
2023-02-15T11:11:07.640Z,66
2023-02-15T11:12:24.745Z,64.2
2023-02-15T11:13:41.849Z,69.2
2023-02-15T11:14:58.954Z,63.8
2023-02-15T11:16:15.074Z,58.1
2023-02-15T11:17:32.178Z,62.1
2023-02-15T11:18:49.283Z,66
2023-02-15T11:20:06.387Z,62.6
2023-02-15T11:21:23.491Z,60.9
2023-02-15T11:22:40.596Z,62.5
2023-02-15T11:23:57.700Z,60.1
2023-02-15T11:25:13.825Z,64.7
2023-02-15T11:26:29.946Z,59.9
2023-02-15T11:27:47.050Z,66.5
2023-02-15T11:29:03.175Z,62.1
2023-02-15T11:30:19.296Z,60.2
2023-02-15T11:31:36.400Z,58.8
2023-02-15T11:32:53.504Z,61.8
2023-02-15T11:34:10.608Z,59.9
2023-02-15T11:35:27.713Z,60.2
2023-02-15T11:36:44.817Z,59.7
2023-02-15T11:38:01.921Z,64.6
2023-02-15T11:39:19.026Z,61.7
2023-02-15T11:40:36.130Z,68.1
2023-02-15T11:41:53.234Z,60.5
2023-02-15T11:43:10.339Z,60.4
2023-02-15T11:44:27.444Z,64.7
2023-02-15T11:45:44.548Z,73.9
2023-02-15T11:47:00.669Z,56.3
2023-02-15T11:48:17.773Z,60.9
2023-02-15T11:49:34.878Z,66
2023-02-15T11:50:51.982Z,67.5
2023-02-15T11:52:09.086Z,58
2023-02-15T11:53:26.190Z,62.8
2023-02-15T11:54:43.294Z,61.8
2023-02-15T11:55:59.414Z,63.1
2023-02-15T11:57:16.519Z,68.1
2023-02-15T11:58:33.623Z,64.2
2023-02-15T11:59:50.727Z,61.7
2023-02-15T12:01:07.831Z,63
2023-02-15T12:02:24.935Z,64.9
2023-02-15T12:03:42.039Z,59.2
2023-02-15T12:04:59.143Z,59.9
2023-02-15T12:06:16.247Z,64.4
2023-02-15T12:07:33.352Z,59.1
2023-02-15T12:08:50.456Z,60.2
2023-02-15T12:10:07.560Z,65.2
2023-02-15T12:11:24.664Z,65.7
2023-02-15T12:12:40.784Z,63.9
2023-02-15T12:13:57.889Z,63.8
2023-02-15T12:15:14.993Z,60.5
2023-02-15T12:16:32.097Z,57.6
2023-02-15T12:17:49.201Z,61
2023-02-15T12:19:06.305Z,60.2
2023-02-15T12:20:23.409Z,58.4
2023-02-15T12:21:40.514Z,60.4
2023-02-15T12:22:57.618Z,55.2
2023-02-15T12:24:14.722Z,68.4
2023-02-15T12:25:31.826Z,64.4
2023-02-15T12:26:48.930Z,60.9
2023-02-15T12:28:06.034Z,63.4
2023-02-15T12:29:22.154Z,61
2023-02-15T12:30:39.259Z,63.6
2023-02-15T12:31:56.363Z,59.4
2023-02-15T12:33:13.465Z,59.9
2023-02-15T12:34:30.569Z,65.2
2023-02-15T12:35:47.673Z,61.3
2023-02-15T12:37:04.777Z,56.8
2023-02-15T12:38:21.881Z,64.7
2023-02-15T12:39:38.986Z,60.7
2023-02-15T12:40:56.090Z,62.8
2023-02-15T12:42:13.194Z,56.2
2023-02-15T12:43:30.298Z,65.4
2023-02-15T12:44:47.402Z,64.1
2023-02-15T12:46:03.523Z,59.1
2023-02-15T12:47:20.627Z,55.7
2023-02-15T12:48:37.731Z,56.7
2023-02-15T12:49:54.835Z,62.5
2023-02-15T12:51:11.940Z,63.9
2023-02-15T12:52:29.044Z,62.6
2023-02-15T12:53:46.149Z,62.3
2023-02-15T12:55:03.253Z,63.1
2023-02-15T12:56:19.378Z,56.7
2023-02-15T12:57:35.499Z,59.1
2023-02-15T12:58:51.624Z,61.7
2023-02-15T13:00:07.744Z,62.6
2023-02-15T13:01:24.849Z,60.7
2023-02-15T13:02:41.953Z,61.7
2023-02-15T13:03:59.057Z,66.8
2023-02-15T13:05:16.161Z,64.2
2023-02-15T13:06:33.266Z,56.8
2023-02-15T13:07:50.370Z,70.7
2023-02-15T13:09:07.475Z,62.1
2023-02-15T13:10:24.579Z,56.7
2023-02-15T13:11:41.683Z,61
2023-02-15T13:12:58.787Z,58.1
2023-02-15T13:14:15.891Z,63
2023-02-15T13:15:32.996Z,65.5
2023-02-15T13:16:49.116Z,62.8
2023-02-15T13:18:06.221Z,62.5
2023-02-15T13:19:23.325Z,59.4
2023-02-15T13:20:40.429Z,64.9
2023-02-15T13:21:57.533Z,71
2023-02-15T13:23:14.637Z,63.8
2023-02-15T13:24:31.741Z,60.4
2023-02-15T13:25:47.867Z,62.6
2023-02-15T13:28:21.090Z,63.1
2023-02-15T13:29:38.194Z,56.5
2023-02-15T13:30:55.298Z,60.5
2023-02-15T13:32:11.424Z,62.1
2023-02-15T13:33:27.545Z,60.7
2023-02-15T13:34:44.649Z,59.4
2023-02-15T13:36:01.754Z,59.1
2023-02-15T13:37:18.858Z,60.7
2023-02-15T13:38:35.962Z,64.9
2023-02-15T13:39:53.066Z,63.8
2023-02-15T13:41:10.171Z,59.9
2023-02-15T13:43:44.379Z,67.5
2023-02-15T13:45:01.484Z,72.8
2023-02-15T13:46:18.588Z,58.4
2023-02-15T13:47:35.692Z,61.8
2023-02-15T13:48:52.796Z,63.4
2023-02-15T13:50:08.917Z,64.1
2023-02-15T13:51:26.021Z,60.2
2023-02-15T13:52:43.126Z,64.7
2023-02-15T13:54:00.230Z,59.1
2023-02-15T13:55:17.334Z,58.1
2023-02-15T13:56:34.439Z,59.7
2023-02-15T13:57:51.543Z,64.4
2023-02-15T13:59:08.648Z,63.8
2023-02-15T14:00:25.752Z,59.6
2023-02-15T14:01:42.856Z,61.2
2023-02-15T14:02:59.962Z,58.1
2023-02-15T14:04:17.066Z,59.4
2023-02-15T14:05:34.170Z,62.6
2023-02-15T14:06:50.291Z,61.5
2023-02-15T14:08:07.395Z,57.3
2023-02-15T14:09:24.500Z,58.1
2023-02-15T14:10:41.604Z,62.5
2023-02-15T14:11:58.708Z,62.6
2023-02-15T14:13:14.834Z,61.8
2023-02-15T14:14:30.955Z,56.5
2023-02-15T14:15:47.080Z,60.9
2023-02-15T14:17:03.201Z,62.6
2023-02-15T14:18:20.305Z,63.3
2023-02-15T14:19:37.410Z,62.1
2023-02-15T14:20:54.514Z,63.8
2023-02-15T14:22:11.618Z,58.1
2023-02-15T14:23:28.723Z,57.8
2023-02-15T14:24:45.827Z,58
2023-02-15T14:26:02.931Z,64.6
2023-02-15T14:27:20.036Z,61.2
2023-02-15T14:28:37.140Z,60.2
2023-02-15T14:29:54.244Z,61.7
2023-02-15T14:31:11.346Z,56.3
2023-02-15T14:32:28.451Z,63
2023-02-15T14:33:44.571Z,63
2023-02-15T14:35:01.675Z,62.3
2023-02-15T14:36:18.780Z,55.2
2023-02-15T14:37:35.884Z,62.1
2023-02-15T14:38:52.988Z,61.2
2023-02-15T14:40:10.093Z,61.5
2023-02-15T14:41:27.197Z,63.4
2023-02-15T14:42:44.302Z,62
2023-02-15T14:44:00.427Z,62.8
2023-02-15T14:45:16.548Z,56.7
2023-02-15T14:46:33.652Z,57.2
2023-02-15T14:47:50.757Z,61.5
2023-02-15T14:49:07.861Z,60.7
2023-02-15T14:50:23.987Z,54.7
2023-02-15T14:51:40.107Z,57.8
2023-02-15T14:52:57.212Z,60.5
2023-02-15T14:54:14.316Z,64.2
2023-02-15T14:55:31.420Z,65.7
2023-02-15T14:56:48.524Z,64.1
2023-02-15T14:58:05.628Z,64.4
2023-02-15T14:59:22.733Z,58
2023-02-15T15:00:39.837Z,68.9
2023-02-15T15:01:56.942Z,61.3
2023-02-15T15:03:14.046Z,56.8
2023-02-15T15:04:31.150Z,63.1
2023-02-15T15:05:48.255Z,61.8
2023-02-15T15:07:05.359Z,61.5
2023-02-15T15:08:21.479Z,61.7
2023-02-15T15:09:38.584Z,65.7
2023-02-15T15:10:55.688Z,60.7
2023-02-15T15:12:12.793Z,60.4
2023-02-15T15:13:29.897Z,64.2
2023-02-15T15:14:47.001Z,61.2
2023-02-15T15:16:04.105Z,61.7
2023-02-15T15:17:20.230Z,65.2
2023-02-15T15:18:36.351Z,63.1
2023-02-15T15:19:52.476Z,54.4
2023-02-15T15:21:08.596Z,63.4
2023-02-15T15:22:25.700Z,58.1
2023-02-15T15:23:42.804Z,60.4
2023-02-15T15:24:59.909Z,62.3
2023-02-15T15:26:17.013Z,58.3
2023-02-15T15:28:51.221Z,64.9
2023-02-15T15:30:08.325Z,65
2023-02-15T15:31:25.430Z,64.9
2023-02-15T15:32:42.534Z,61.2
2023-02-15T15:33:59.638Z,61.3
2023-02-15T15:35:16.743Z,62
2023-02-15T15:36:33.847Z,59.7
2023-02-15T15:37:49.968Z,62.1
2023-02-15T15:39:07.074Z,62.8
2023-02-15T15:40:24.180Z,62.6
2023-02-15T15:41:41.285Z,65
2023-02-15T15:42:58.389Z,58.9
2023-02-15T15:44:15.494Z,62.6
2023-02-15T15:45:32.599Z,65.9
2023-02-15T15:46:49.703Z,59.4
2023-02-15T15:48:05.830Z,62.1
2023-02-15T15:49:21.950Z,57.2
2023-02-15T15:50:39.055Z,58.1
2023-02-15T15:51:55.181Z,64.2
2023-02-15T15:53:11.302Z,59.4
2023-02-15T15:54:28.406Z,64.6
2023-02-15T15:55:45.511Z,63
2023-02-15T15:57:02.615Z,63.8
2023-02-15T15:58:19.720Z,63.4
2023-02-15T15:59:36.824Z,63.1
2023-02-15T16:00:53.929Z,56.2
2023-02-15T16:02:11.033Z,65.4
2023-02-15T16:03:28.138Z,69.1
2023-02-15T16:04:45.242Z,65.2
2023-02-15T16:06:02.347Z,63.3
2023-02-15T16:07:19.451Z,61.8
2023-02-15T16:08:36.556Z,70.7
2023-02-15T16:09:52.677Z,63.9
2023-02-15T16:11:09.781Z,65
2023-02-15T16:12:26.886Z,59.9
2023-02-15T16:13:43.006Z,58
2023-02-15T16:15:00.111Z,58.1
2023-02-15T16:16:17.216Z,63.3
2023-02-15T16:17:34.320Z,62.3
2023-02-15T16:18:50.446Z,61.3
2023-02-15T16:20:06.567Z,69.9
2023-02-15T16:21:22.693Z,64.9
2023-02-15T16:22:38.814Z,60.7
2023-02-15T16:23:55.918Z,62.5
2023-02-15T16:25:13.023Z,65.7
2023-02-15T16:26:30.128Z,61.2
2023-02-15T16:27:47.233Z,68.4
2023-02-15T16:29:04.337Z,57.5
2023-02-15T16:30:21.442Z,61
2023-02-15T16:31:38.547Z,67.9
2023-02-15T16:32:55.652Z,62.6
2023-02-15T16:34:12.757Z,65.9
2023-02-15T16:35:29.862Z,64.6
2023-02-15T16:36:46.967Z,68.1
2023-02-15T16:38:04.071Z,65
2023-02-15T16:39:20.190Z,63.9
2023-02-15T16:40:37.295Z,56
2023-02-15T16:41:54.400Z,61
2023-02-15T16:43:11.504Z,62.6
2023-02-15T16:44:28.609Z,61
2023-02-15T16:45:45.714Z,61
2023-02-15T16:47:02.819Z,60.5
2023-02-15T16:48:19.923Z,64.4
2023-02-15T16:49:37.028Z,68.4
2023-02-15T16:50:54.133Z,67
2023-02-15T16:52:11.237Z,62.8
2023-02-15T16:53:28.342Z,60.5
2023-02-15T16:54:45.447Z,64.4
2023-02-15T16:56:01.568Z,69.9
2023-02-15T16:57:18.673Z,61
2023-02-15T16:58:35.777Z,64.1
2023-02-15T16:59:52.882Z,64.7
2023-02-15T17:01:09.987Z,62.5
2023-02-15T17:02:27.091Z,79.7
2023-02-15T17:03:44.196Z,62.8
2023-02-15T17:05:01.301Z,63.8
2023-02-15T17:06:18.406Z,60.7
2023-02-15T17:07:35.510Z,62
2023-02-15T17:08:52.615Z,61.3
2023-02-15T17:10:09.720Z,64.9
2023-02-15T17:11:25.846Z,67.6
2023-02-15T17:12:41.967Z,66.3
2023-02-15T17:13:59.071Z,58.8
2023-02-15T17:15:15.197Z,64.2
2023-02-15T17:16:31.318Z,55.2
2023-02-15T17:17:48.423Z,67.5
2023-02-15T17:19:05.529Z,58.6
2023-02-15T17:20:22.633Z,66.5